Time;durP1;ratioP1;P1;durP2;ratioP2;P2;SDS_P1;SDS_P2;PMS_P1;PMS_P2;Temp;Humidity;BMP_temperature;BMP_pressure;BME280_temperature;BME280_humidity;BME280_pressure;Samples;Min_cycle;Max_cycle;Signal;HPM_P1;HPM_P2
2024/04/13 00:01:58;;;;;;;;;;;;;;;;;;5347974;26;19934;-59
2024/04/13 00:04:23;;;;;;;;;;;;;;;;;;5354270;26;19937;-60
2024/04/13 00:06:49;;;;;;;;;;;;;;;;;;5349269;26;19929;-59
2024/04/13 00:09:15;;;;;;;;;;;;;;;;;;5360631;26;19930;-61
2024/04/13 00:11:41;;;;;;;;;;;;;;;;;;5350262;26;19941;-59
2024/04/13 00:14:07;;;;;;;;;;;;;;;;;;5359606;26;20028;-59
2024/04/13 00:16:33;;;;;;;;;;;;;;;;;;5357985;26;19942;-58
2024/04/13 00:18:59;;;;;;;;;;;;;;;;;;5345215;26;20000;-58
2024/04/13 00:21:25;;;;;;;;;;;;;;;;;;5346736;26;19936;-57
2024/04/13 00:23:52;;;;;;;;;;;;;;;;;;5359643;26;20333;-59
2024/04/13 00:26:18;;;;;;;;;;;;;;;;;;5353675;26;19934;-60
2024/04/13 00:28:44;;;;;;;;;;;;;;;;;;5363658;26;19949;-58
2024/04/13 00:31:11;;;;;;;;;;;;;;;;;;5348903;26;19930;-60
2024/04/13 00:33:38;;;;;;;;;;;;;;;;;;5342069;26;20431;-59
2024/04/13 00:36:05;;;;;;;;;;;;;;;;;;5340039;26;20011;-60
2024/04/13 00:38:31;;;;;;;;;;;;;;;;;;5349165;26;19930;-62
2024/04/13 00:40:57;;;;;;;;;;;;;;;;;;5347324;26;19931;-60
2024/04/13 00:43:22;;;;;;;;;;;;;;;;;;5364562;26;19943;-60
2024/04/13 00:45:48;;;;;;;;;;;;;;;;;;5365729;26;19940;-60
2024/04/13 00:48:14;;;;;;;;;;;;;;;;;;5347333;26;20384;-60
2024/04/13 00:50:40;;;;;;;;;;;;;;;;;;5342986;26;20437;-61
2024/04/13 00:53:07;;;;;;;;;;;;;;;;;;5347506;26;20409;-60
2024/04/13 00:55:33;;;;;;;;;;;;;;;;;;5360637;26;19929;-60
2024/04/13 00:57:59;;;;;;;;;;;;;;;;;;5355194;26;20000;-60
2024/04/13 01:00:25;;;;;;;;;;;;;;;;;;5351804;26;21390;-59
2024/04/13 01:02:52;;;;;;;;;;;;;;;;;;5350321;26;19962;-58
2024/04/13 01:05:18;;;;;;;;;;;;;;;;;;5344555;26;20045;-57
2024/04/13 01:07:46;;;;;;;;;;;;;;;;;;5340728;26;19930;-58
2024/04/13 01:10:16;;;;;;;;;;;;;;;;;;5342147;26;19934;-59
2024/04/13 01:12:43;;;;;;;;;;;;;;;;;;5351899;26;20257;-61
2024/04/13 01:15:09;;;;;;;;;;;;;;;;;;5340441;26;19996;-61
2024/04/13 01:17:37;;;;;;;;;;;;;;;;;;5349896;26;19953;-59
2024/04/13 01:20:03;;;;;;;;;;;;;;;;;;5344447;26;20389;-59
2024/04/13 01:22:29;;;;;;;;;;;;;;;;;;5360591;26;20386;-59
2024/04/13 01:24:55;;;;;;;;;;;;;;;;;;5352373;26;19930;-59
2024/04/13 01:27:21;;;;;;;;;;;;;;;;;;5349569;26;20264;-61
2024/04/13 01:29:46;;;;;;;;;;;;;;;;;;5355307;26;19940;-59
2024/04/13 01:32:13;;;;;;;;;;;;;;;;;;5347621;26;20268;-59
2024/04/13 01:34:39;;;;;;;;;;;;;;;;;;5354888;26;19937;-60
2024/04/13 01:37:07;;;;;;;;;;;;;;;;;;5342936;26;19937;-59
2024/04/13 01:39:33;;;;;;;;;;;;;;;;;;5349630;26;19941;-60
2024/04/13 01:41:59;;;;;;;;;;;;;;;;;;5350967;26;20280;-60
2024/04/13 01:44:27;;;;;;;;;;;;;;;;;;5345978;26;19930;-56
2024/04/13 01:46:53;;;;;;;;;;;;;;;;;;5347540;26;20419;-58
2024/04/13 01:49:18;;;;;;;;;;;;;;;;;;5369553;26;19984;-59
2024/04/13 01:51:44;;;;;;;;;;;;;;;;;;5349604;26;19937;-57
2024/04/13 01:54:10;;;;;;;;;;;;;;;;;;5353242;26;19989;-59
2024/04/13 01:56:36;;;;;;;;;;;;;;;;;;5355305;26;19937;-59
2024/04/13 01:59:02;;;;;;;;;;;;;;;;;;5352118;26;20410;-60
2024/04/13 02:01:28;;;;;;;;;;;;;;;;;;5351314;26;19941;-60
2024/04/13 02:03:53;;;;;;;;;;;;;;;;;;5349010;26;20267;-60
2024/04/13 02:06:19;;;;;;;;;;;;;;;;;;5351681;26;19942;-59
2024/04/13 02:08:45;;;;;;;;;;;;;;;;;;5352076;26;19929;-60
2024/04/13 02:11:11;;;;;;;;;;;;;;;;;;5348244;26;19942;-60
2024/04/13 02:13:37;;;;;;;;;;;;;;;;;;5362907;26;20269;-61
2024/04/13 02:16:03;;;;;;;;;;;;;;;;;;5342306;26;19930;-61
2024/04/13 02:18:29;;;;;;;;;;;;;;;;;;5352942;26;19930;-60
2024/04/13 02:20:55;;;;;;;;;;;;;;;;;;5353481;26;19929;-59
2024/04/13 02:23:21;;;;;;;;;;;;;;;;;;5352417;26;19944;-60
2024/04/13 02:25:47;;;;;;;;;;;;;;;;;;5351676;26;20295;-59
2024/04/13 02:28:14;;;;;;;;;;;;;;;;;;5352833;26;19938;-60
2024/04/13 02:30:40;;;;;;;;;;;;;;;;;;5353587;26;19958;-61
2024/04/13 02:33:06;;;;;;;;;;;;;;;;;;5343030;26;20423;-59
2024/04/13 02:35:32;;;;;;;;;;;;;;;;;;5348265;26;20371;-57
2024/04/13 02:37:58;;;;;;;;;;;;;;;;;;5343913;26;19937;-61
2024/04/13 02:40:23;;;;;;;;;;;;;;;;;;5357148;26;20280;-59
2024/04/13 02:42:49;;;;;;;;;;;;;;;;;;5351462;26;19930;-61
2024/04/13 02:45:15;;;;;;;;;;;;;;;;;;5359332;26;19942;-60
2024/04/13 02:47:41;;;;;;;;;;;;;;;;;;5360943;26;20247;-60
2024/04/13 02:50:07;;;;;;;;;;;;;;;;;;5352983;26;19930;-61
2024/04/13 02:52:33;;;;;;;;;;;;;;;;;;5351750;26;20449;-59
2024/04/13 02:54:59;;;;;;;;;;;;;;;;;;5352437;26;19944;-59
2024/04/13 02:57:25;;;;;;;;;;;;;;;;;;5354796;26;19940;-59
2024/04/13 02:59:51;;;;;;;;;;;;;;;;;;5363735;26;19934;-59
2024/04/13 03:02:17;;;;;;;;;;;;;;;;;;5352894;26;19962;-60
2024/04/13 03:04:44;;;;;;;;;;;;;;;;;;5359195;26;19930;-61
2024/04/13 03:07:10;;;;;;;;;;;;;;;;;;5348544;26;19941;-59
2024/04/13 03:09:35;;;;;;;;;;;;;;;;;;5353977;26;19940;-59
2024/04/13 03:12:01;;;;;;;;;;;;;;;;;;5352925;26;19999;-60
2024/04/13 03:14:27;;;;;;;;;;;;;;;;;;5354739;26;19930;-60
2024/04/13 03:16:53;;;;;;;;;;;;;;;;;;5349771;26;19941;-60
2024/04/13 03:19:19;;;;;;;;;;;;;;;;;;5342826;26;19934;-60
2024/04/13 03:21:48;;;;;;;;;;;;;;;;;;5351379;26;19933;-60
2024/04/13 03:24:14;;;;;;;;;;;;;;;;;;5357188;26;19938;-61
2024/04/13 03:26:40;;;;;;;;;;;;;;;;;;5352993;26;19994;-59
2024/04/13 03:29:05;;;;;;;;;;;;;;;;;;5354937;26;19937;-61
2024/04/13 03:31:32;;;;;;;;;;;;;;;;;;5351406;26;19941;-60
2024/04/13 03:33:57;;;;;;;;;;;;;;;;;;5353736;26;19930;-60
2024/04/13 03:36:26;;;;;;;;;;;;;;;;;;5358268;26;19940;-59
2024/04/13 03:38:51;;;;;;;;;;;;;;;;;;5357554;26;20265;-58
2024/04/13 03:41:17;;;;;;;;;;;;;;;;;;5346802;26;19945;-61
2024/04/13 03:43:43;;;;;;;;;;;;;;;;;;5359087;26;20294;-61
2024/04/13 03:46:09;;;;;;;;;;;;;;;;;;5353477;26;19949;-61
2024/04/13 03:48:38;;;;;;;;;;;;;;;;;;5351596;26;19930;-59
2024/04/13 03:51:04;;;;;;;;;;;;;;;;;;5347989;26;19930;-59
2024/04/13 03:53:30;;;;;;;;;;;;;;;;;;5355655;26;19937;-60
2024/04/13 03:55:56;;;;;;;;;;;;;;;;;;5346923;26;19984;-60
2024/04/13 03:58:21;;;;;;;;;;;;;;;;;;5346597;26;19930;-62
2024/04/13 04:00:47;;;;;;;;;;;;;;;;;;5336558;26;19937;-60
2024/04/13 04:03:13;;;;;;;;;;;;;;;;;;5343189;26;19974;-60
2024/04/13 04:05:39;;;;;;;;;;;;;;;;;;5344143;26;20434;-60
2024/04/13 04:08:06;;;;;;;;;;;;;;;;;;5349469;26;20289;-61
2024/04/13 04:10:32;;;;;;;;;;;;;;;;;;5345201;26;19988;-61
2024/04/13 04:13:01;;;;;;;;;;;;;;;;;;5352801;26;20357;-61
2024/04/13 04:15:27;;;;;;;;;;;;;;;;;;5349759;26;19966;-60
2024/04/13 04:17:53;;;;;;;;;;;;;;;;;;5347139;26;20697;-60
2024/04/13 04:20:18;;;;;;;;;;;;;;;;;;5341983;26;19940;-59
2024/04/13 04:22:44;;;;;;;;;;;;;;;;;;5345133;26;19956;-59
2024/04/13 04:25:10;;;;;;;;;;;;;;;;;;5345557;26;20252;-57
2024/04/13 04:27:36;;;;;;;;;;;;;;;;;;5350015;26;19937;-58
2024/04/13 04:30:03;;;;;;;;;;;;;;;;;;5343657;26;20265;-59
2024/04/13 04:32:29;;;;;;;;;;;;;;;;;;5344844;26;19930;-56
2024/04/13 04:34:54;;;;;;;;;;;;;;;;;;5345656;26;20279;-57
2024/04/13 04:37:20;;;;;;;;;;;;;;;;;;5342476;26;19938;-58
2024/04/13 04:39:46;;;;;;;;;;;;;;;;;;5351402;26;19930;-59
2024/04/13 04:42:12;;;;;;;;;;;;;;;;;;5342541;26;19942;-56
2024/04/13 04:44:38;;;;;;;;;;;;;;;;;;5358154;26;20225;-57
2024/04/13 04:47:04;;;;;;;;;;;;;;;;;;5343942;26;20007;-58
2024/04/13 04:49:30;;;;;;;;;;;;;;;;;;5343987;26;19937;-59
2024/04/13 04:51:56;;;;;;;;;;;;;;;;;;5340732;26;19930;-59
2024/04/13 04:54:22;;;;;;;;;;;;;;;;;;5339931;26;19930;-61
2024/04/13 04:56:48;;;;;;;;;;;;;;;;;;5345578;26;19930;-59
2024/04/13 04:59:14;;;;;;;;;;;;;;;;;;5347824;26;19945;-61
2024/04/13 05:01:39;;;;;;;;;;;;;;;;;;5332640;26;20442;-60
2024/04/13 05:04:06;;;;;;;;;;;;;;;;;;5342941;26;19930;-60
2024/04/13 05:06:33;;;;;;;;;;;;;;;;;;5345830;26;19934;-60
2024/04/13 05:08:59;;;;;;;;;;;;;;;;;;5341352;26;19938;-60
2024/04/13 05:11:25;;;;;;;;;;;;;;;;;;5342968;26;20387;-59
2024/04/13 05:13:51;;;;;;;;;;;;;;;;;;5349765;26;19929;-59
2024/04/13 05:16:17;;;;;;;;;;;;;;;;;;5347064;26;19930;-59
2024/04/13 05:18:43;;;;;;;;;;;;;;;;;;5347397;26;19929;-61
2024/04/13 05:21:08;;;;;;;;;;;;;;;;;;5345204;26;19934;-61
2024/04/13 05:23:34;;;;;;;;;;;;;;;;;;5348098;26;19930;-59
2024/04/13 05:26:00;;;;;;;;;;;;;;;;;;5335262;26;20612;-60
2024/04/13 05:28:26;;;;;;;;;;;;;;;;;;5346128;26;19930;-60
2024/04/13 05:31:00;;;;;;;;;;;;;;;;;;5341598;26;20057;-60
2024/04/13 05:33:26;;;;;;;;;;;;;;;;;;5345002;26;19930;-60
2024/04/13 05:35:52;;;;;;;;;;;;;;;;;;5345704;26;19935;-61
2024/04/13 05:38:18;;;;;;;;;;;;;;;;;;5347946;26;20048;-58
2024/04/13 05:40:44;;;;;;;;;;;;;;;;;;5352167;26;19937;-60
2024/04/13 05:43:09;;;;;;;;;;;;;;;;;;5347609;26;20003;-59
2024/04/13 05:45:35;;;;;;;;;;;;;;;;;;5339740;26;19937;-60
2024/04/13 05:48:01;;;;;;;;;;;;;;;;;;5341466;26;19930;-60
2024/04/13 05:50:27;;;;;;;;;;;;;;;;;;5350607;26;19937;-58
2024/04/13 05:52:53;;;;;;;;;;;;;;;;;;5347853;26;19934;-58
2024/04/13 05:55:19;;;;;;;;;;;;;;;;;;5346098;26;19938;-57
2024/04/13 05:57:45;;;;;;;;;;;;;;;;;;5343350;26;19930;-58
2024/04/13 06:00:10;;;;;;;;;;;;;;;;;;5342426;26;19967;-61
2024/04/13 06:02:36;;;;;;;;;;;;;;;;;;5341755;26;20473;-60
2024/04/13 06:05:02;;;;;;;;;;;;;;;;;;5349468;26;19930;-56
2024/04/13 06:07:28;;;;;;;;;;;;;;;;;;5347064;26;19930;-56
2024/04/13 06:09:54;;;;;;;;;;;;;;;;;;5347183;26;19930;-59
2024/04/13 06:12:20;;;;;;;;;;;;;;;;;;5343133;26;20002;-60
2024/04/13 06:14:46;;;;;;;;;;;;;;;;;;5351956;26;19940;-59
2024/04/13 06:17:11;;;;;;;;;;;;;;;;;;5336696;26;19934;-60
2024/04/13 06:19:37;;;;;;;;;;;;;;;;;;5351805;26;19930;-60
2024/04/13 06:22:03;;;;;;;;;;;;;;;;;;5338518;26;19930;-60
2024/04/13 06:24:29;;;;;;;;;;;;;;;;;;5355020;26;20343;-60
2024/04/13 06:26:55;;;;;;;;;;;;;;;;;;5351301;26;19929;-61
2024/04/13 06:29:21;;;;;;;;;;;;;;;;;;5357171;26;20045;-59
2024/04/13 06:31:46;;;;;;;;;;;;;;;;;;5349398;26;19959;-59
2024/04/13 06:34:12;;;;;;;;;;;;;;;;;;5339817;26;20348;-60
2024/04/13 06:36:38;;;;;;;;;;;;;;;;;;5345944;26;19930;-60
2024/04/13 06:39:04;;;;;;;;;;;;;;;;;;5346348;26;19931;-59
2024/04/13 06:41:31;;;;;;;;;;;;;;;;;;5348490;26;19930;-60
2024/04/13 06:43:57;;;;;;;;;;;;;;;;;;5349743;26;20000;-59
2024/04/13 06:46:23;;;;;;;;;;;;;;;;;;5341350;26;20353;-59
2024/04/13 06:48:48;;;;;;;;;;;;;;;;;;5341362;26;19934;-61
2024/04/13 06:51:14;;;;;;;;;;;;;;;;;;5341894;26;20364;-59
2024/04/13 06:53:40;;;;;;;;;;;;;;;;;;5334830;26;19966;-60
2024/04/13 06:56:06;;;;;;;;;;;;;;;;;;5341662;26;19962;-58
2024/04/13 06:58:32;;;;;;;;;;;;;;;;;;5354814;26;19934;-58
2024/04/13 07:00:58;;;;;;;;;;;;;;;;;;5352476;26;19930;-59
2024/04/13 07:03:24;;;;;;;;;;;;;;;;;;5345032;26;19996;-57
2024/04/13 07:05:49;;;;;;;;;;;;;;;;;;5340322;26;19944;-59
2024/04/13 07:08:15;;;;;;;;;;;;;;;;;;5344206;26;19991;-59
2024/04/13 07:10:41;;;;;;;;;;;;;;;;;;5340620;26;19948;-60
2024/04/13 07:13:08;;;;;;;;;;;;;;;;;;5344207;26;19930;-59
2024/04/13 07:15:34;;;;;;;;;;;;;;;;;;5342052;26;19930;-61
2024/04/13 07:18:00;;;;;;;;;;;;;;;;;;5342405;26;19962;-58
2024/04/13 07:20:26;;;;;;;;;;;;;;;;;;5346328;26;19957;-60
2024/04/13 07:22:52;;;;;;;;;;;;;;;;;;5345562;26;20000;-59
2024/04/13 07:25:18;;;;;;;;;;;;;;;;;;5343707;26;19937;-60
2024/04/13 07:27:44;;;;;;;;;;;;;;;;;;5338871;26;19998;-57
2024/04/13 07:30:10;;;;;;;;;;;;;;;;;;5334982;26;19937;-60
2024/04/13 07:32:36;;;;;;;;;;;;;;;;;;5348507;26;19945;-59
2024/04/13 07:35:02;;;;;;;;;;;;;;;;;;5347542;26;19949;-59
2024/04/13 07:37:28;;;;;;;;;;;;;;;;;;5346003;26;19930;-59
2024/04/13 07:39:55;;;;;;;;;;;;;;;;;;5343724;26;20059;-55
2024/04/13 07:42:20;;;;;;;;;;;;;;;;;;5342592;26;19965;-60
2024/04/13 07:44:46;;;;;;;;;;;;;;;;;;5345274;26;19937;-60
2024/04/13 07:47:12;;;;;;;;;;;;;;;;;;5343089;26;19930;-56
2024/04/13 07:49:38;;;;;;;;;;;;;;;;;;5345362;26;19934;-59
2024/04/13 07:52:04;;;;;;;;;;;;;;;;;;5348255;26;19934;-61
2024/04/13 07:54:30;;;;;;;;;;;;;;;;;;5352591;26;20000;-60
2024/04/13 07:56:56;;;;;;;;;;;;;;;;;;5339624;26;20041;-58
2024/04/13 07:59:22;;;;;;;;;;;;;;;;;;5334296;26;19930;-61
2024/04/13 08:01:48;;;;;;;;;;;;;;;;;;5336702;26;19930;-58
2024/04/13 08:04:14;;;;;;;;;;;;;;;;;;5342366;26;19933;-61
2024/04/13 08:06:40;;;;;;;;;;;;;;;;;;5341750;26;19934;-58
2024/04/13 08:09:05;;;;;;;;;;;;;;;;;;5337378;26;19930;-61
2024/04/13 08:11:32;;;;;;;;;;;;;;;;;;5334138;26;20249;-57
2024/04/13 08:13:58;;;;;;;;;;;;;;;;;;5336817;26;19938;-60
2024/04/13 08:16:24;;;;;;;;;;;;;;;;;;5335156;26;19941;-60
2024/04/13 08:18:50;;;;;;;;;;;;;;;;;;5341429;26;19956;-58
2024/04/13 08:21:16;;;;;;;;;;;;;;;;;;5327719;26;20120;-58
2024/04/13 08:23:42;;;;;;;;;;;;;;;;;;5339241;26;19945;-60
2024/04/13 08:26:07;;;;;;;;;;;;;;;;;;5344635;26;19945;-59
2024/04/13 08:28:33;;;;;;;;;;;;;;;;;;5339316;26;19942;-59
2024/04/13 08:30:59;;;;;;;;;;;;;;;;;;5336759;26;19938;-58
2024/04/13 08:33:25;;;;;;;;;;;;;;;;;;5348058;26;19934;-57
2024/04/13 08:35:51;;;;;;;;;;;;;;;;;;5345787;26;19929;-57
2024/04/13 08:38:17;;;;;;;;;;;;;;;;;;5342978;26;20046;-58
2024/04/13 08:40:43;;;;;;;;;;;;;;;;;;5347253;26;20243;-58
2024/04/13 08:43:08;;;;;;;;;;;;;;;;;;5340199;26;19940;-60
2024/04/13 08:45:34;;;;;;;;;;;;;;;;;;5341031;26;20003;-61
2024/04/13 08:48:01;;;;;;;;;;;;;;;;;;5341845;26;19961;-59
2024/04/13 08:50:27;;;;;;;;;;;;;;;;;;5341033;26;20283;-60
2024/04/13 08:52:53;;;;;;;;;;;;;;;;;;5344292;26;19946;-60
2024/04/13 08:55:18;;;;;;;;;;;;;;;;;;5372405;26;19962;-60
2024/04/13 08:57:44;;;;;;;;;;;;;;;;;;5350444;26;20010;-59
2024/04/13 09:00:15;;;;;;;;;;;;;;;;;;5340276;26;19937;-60
2024/04/13 09:02:41;;;;;;;;;;;;;;;;;;5343422;26;19937;-59
2024/04/13 09:05:08;;;;;;;;;;;;;;;;;;5341351;26;19930;-58
2024/04/13 09:07:34;;;;;;;;;;;;;;;;;;5351993;26;19938;-59
2024/04/13 09:10:00;;;;;;;;;;;;;;;;;;5355450;26;19929;-60
2024/04/13 09:12:26;;;;;;;;;;;;;;;;;;5349235;26;19999;-60
2024/04/13 09:14:51;;;;;;;;;;;;;;;;;;5345157;26;20305;-60
2024/04/13 09:17:17;;;;;;;;;;;;;;;;;;5346791;26;19941;-59
2024/04/13 09:19:46;;;;;;;;;;;;;;;;;;5359015;26;19930;-59
2024/04/13 09:22:12;;;;;;;;;;;;;;;;;;5348161;26;20372;-58
2024/04/13 09:24:38;;;;;;;;;;;;;;;;;;5351747;26;20014;-59
2024/04/13 09:27:06;;;;;;;;;;;;;;;;;;5355621;26;20450;-59
2024/04/13 09:29:31;;;;;;;;;;;;;;;;;;5352444;26;19942;-58
2024/04/13 09:31:58;;;;;;;;;;;;;;;;;;5347048;26;20304;-61
2024/04/13 09:34:24;;;;;;;;;;;;;;;;;;5333128;26;19943;-58
2024/04/13 09:36:50;;;;;;;;;;;;;;;;;;5353117;26;20381;-57
2024/04/13 09:39:16;;;;;;;;;;;;;;;;;;5351980;26;19930;-57
2024/04/13 09:41:42;;;;;;;;;;;;;;;;;;5360717;26;19930;-57
2024/04/13 09:44:09;;;;;;;;;;;;;;;;;;5343285;26;19934;-56
2024/04/13 09:46:34;;;;;;;;;;;;;;;;;;5377185;26;19930;-58
2024/04/13 09:49:00;;;;;;;;;;;;;;;;;;5345981;26;19936;-59
2024/04/13 09:51:26;;;;;;;;;;;;;;;;;;5344755;26;19930;-55
2024/04/13 09:53:52;;;;;;;;;;;;;;;;;;5346911;26;19929;-57
2024/04/13 09:56:18;;;;;;;;;;;;;;;;;;5336928;26;19950;-60
2024/04/13 09:58:44;;;;;;;;;;;;;;;;;;5345051;26;20380;-58
2024/04/13 10:01:10;;;;;;;;;;;;;;;;;;5345795;26;20016;-58
2024/04/13 10:03:35;;;;;;;;;;;;;;;;;;5341017;26;20033;-59
2024/04/13 10:06:01;;;;;;;;;;;;;;;;;;5340785;26;19941;-58
2024/04/13 10:08:27;;;;;;;;;;;;;;;;;;5340409;26;19938;-58
2024/04/13 10:10:53;;;;;;;;;;;;;;;;;;5336483;26;19930;-57
2024/04/13 10:13:19;;;;;;;;;;;;;;;;;;5338468;26;20000;-57
2024/04/13 10:15:45;;;;;;;;;;;;;;;;;;5341365;26;20657;-56
2024/04/13 10:18:11;;;;;;;;;;;;;;;;;;5343118;26;20292;-57
2024/04/13 10:20:37;;;;;;;;;;;;;;;;;;5328605;26;19934;-58
2024/04/13 10:23:04;;;;;;;;;;;;;;;;;;5344907;26;19941;-58
2024/04/13 10:25:30;;;;;;;;;;;;;;;;;;5337780;26;19937;-55
2024/04/13 10:27:56;;;;;;;;;;;;;;;;;;5333022;26;19937;-58
2024/04/13 10:30:22;;;;;;;;;;;;;;;;;;5336111;26;20263;-58
2024/04/13 10:32:48;;;;;;;;;;;;;;;;;;5345039;26;20000;-56
2024/04/13 10:35:14;;;;;;;;;;;;;;;;;;5344876;26;19937;-57
2024/04/13 10:37:40;;;;;;;;;;;;;;;;;;5340822;26;19930;-57
2024/04/13 10:40:06;;;;;;;;;;;;;;;;;;5334129;26;19949;-58
2024/04/13 10:42:32;;;;;;;;;;;;;;;;;;5334611;26;19937;-57
2024/04/13 10:44:58;;;;;;;;;;;;;;;;;;5327221;26;19999;-60
2024/04/13 10:47:23;;;;;;;;;;;;;;;;;;5350448;26;19933;-56
2024/04/13 10:49:49;;;;;;;;;;;;;;;;;;5342636;26;20355;-58
2024/04/13 10:52:15;;;;;;;;;;;;;;;;;;5340767;26;19930;-57
2024/04/13 10:54:41;;;;;;;;;;;;;;;;;;5357805;26;19946;-59
2024/04/13 10:57:08;;;;;;;;;;;;;;;;;;5351619;26;19938;-58
2024/04/13 10:59:36;;;;;;;;;;;;;;;;;;5343376;26;19941;-56
2024/04/13 11:02:04;;;;;;;;;;;;;;;;;;5345063;26;19929;-59
2024/04/13 11:04:30;;;;;;;;;;;;;;;;;;5341580;26;19942;-59
2024/04/13 11:06:56;;;;;;;;;;;;;;;;;;5344739;26;19938;-60
2024/04/13 11:09:21;;;;;;;;;;;;;;;;;;5352658;26;20119;-58
2024/04/13 11:11:48;;;;;;;;;;;;;;;;;;5338777;26;19937;-58
2024/04/13 11:14:13;;;;;;;;;;;;;;;;;;5353153;26;19938;-57
2024/04/13 11:16:41;;;;;;;;;;;;;;;;;;5341395;26;19966;-58
2024/04/13 11:19:07;;;;;;;;;;;;;;;;;;5338365;26;20269;-59
2024/04/13 11:21:33;;;;;;;;;;;;;;;;;;5349706;26;19942;-58
2024/04/13 11:23:58;;;;;;;;;;;;;;;;;;5336803;26;19930;-57
2024/04/13 11:26:25;;;;;;;;;;;;;;;;;;5372756;26;19937;-58
2024/04/13 11:28:51;;;;;;;;;;;;;;;;;;5352873;26;20371;-60
2024/04/13 11:31:17;;;;;;;;;;;;;;;;;;5339662;26;19989;-59
2024/04/13 11:33:42;;;;;;;;;;;;;;;;;;5353071;26;20287;-58
2024/04/13 11:36:09;;;;;;;;;;;;;;;;;;5341450;26;19931;-59
2024/04/13 11:38:35;;;;;;;;;;;;;;;;;;5335403;26;19938;-61
2024/04/13 11:41:01;;;;;;;;;;;;;;;;;;5344832;26;19937;-60
2024/04/13 11:43:27;;;;;;;;;;;;;;;;;;5360560;26;19936;-61
2024/04/13 11:45:52;;;;;;;;;;;;;;;;;;5333014;26;19931;-60
2024/04/13 11:48:18;;;;;;;;;;;;;;;;;;5341884;26;20348;-58
2024/04/13 11:50:44;;;;;;;;;;;;;;;;;;5341634;26;19961;-58
2024/04/13 11:53:11;;;;;;;;;;;;;;;;;;5342717;26;20014;-57
2024/04/13 11:55:37;;;;;;;;;;;;;;;;;;5356468;26;19966;-58
2024/04/13 11:58:03;;;;;;;;;;;;;;;;;;5346865;26;19930;-58
2024/04/13 12:00:29;;;;;;;;;;;;;;;;;;5349816;26;20405;-58
2024/04/13 12:02:56;;;;;;;;;;;;;;;;;;5345598;26;19937;-56
2024/04/13 12:05:22;;;;;;;;;;;;;;;;;;5346612;26;19956;-57
2024/04/13 12:07:47;;;;;;;;;;;;;;;;;;5358654;26;19934;-58
2024/04/13 12:10:13;;;;;;;;;;;;;;;;;;5337901;26;19930;-57
2024/04/13 12:12:39;;;;;;;;;;;;;;;;;;5347497;26;20055;-58
2024/04/13 12:15:05;;;;;;;;;;;;;;;;;;5344099;26;19934;-58
2024/04/13 12:17:31;;;;;;;;;;;;;;;;;;5342903;26;19930;-59
2024/04/13 12:19:57;;;;;;;;;;;;;;;;;;5348566;26;20352;-58
2024/04/13 12:22:23;;;;;;;;;;;;;;;;;;5352707;26;19930;-58
2024/04/13 12:24:49;;;;;;;;;;;;;;;;;;5353970;26;19986;-58
2024/04/13 12:27:15;;;;;;;;;;;;;;;;;;5339388;26;19965;-59
2024/04/13 12:29:41;;;;;;;;;;;;;;;;;;5353465;26;20073;-58
2024/04/13 12:32:07;;;;;;;;;;;;;;;;;;5348634;26;20401;-57
2024/04/13 12:34:33;;;;;;;;;;;;;;;;;;5366188;26;19938;-57
2024/04/13 12:36:59;;;;;;;;;;;;;;;;;;5343603;26;20270;-60
2024/04/13 12:39:24;;;;;;;;;;;;;;;;;;5345859;26;19942;-58
2024/04/13 12:41:50;;;;;;;;;;;;;;;;;;5345537;26;19945;-57
2024/04/13 12:44:16;;;;;;;;;;;;;;;;;;5351917;26;19937;-59
2024/04/13 12:46:42;;;;;;;;;;;;;;;;;;5347096;26;20336;-57
2024/04/13 12:49:08;;;;;;;;;;;;;;;;;;5354124;26;19937;-58
2024/04/13 12:51:34;;;;;;;;;;;;;;;;;;5340249;26;19953;-58
2024/04/13 12:54:00;;;;;;;;;;;;;;;;;;5340293;26;19934;-58
2024/04/13 12:56:25;;;;;;;;;;;;;;;;;;5341126;26;19942;-58
2024/04/13 12:58:51;;;;;;;;;;;;;;;;;;5357092;26;19930;-58
2024/04/13 13:01:17;;;;;;;;;;;;;;;;;;5342446;26;19962;-59
2024/04/13 13:03:43;;;;;;;;;;;;;;;;;;5347901;26;19937;-58
2024/04/13 13:06:09;;;;;;;;;;;;;;;;;;5342106;26;20292;-60
2024/04/13 13:08:35;;;;;;;;;;;;;;;;;;5342327;26;19937;-57
2024/04/13 13:11:01;;;;;;;;;;;;;;;;;;5338882;26;19930;-58
2024/04/13 13:13:26;;;;;;;;;;;;;;;;;;5348596;26;20425;-56
2024/04/13 13:15:55;;;;;;;;;;;;;;;;;;5357343;26;19940;-57
2024/04/13 13:18:21;;;;;;;;;;;;;;;;;;5360613;26;19930;-59
2024/04/13 13:20:47;;;;;;;;;;;;;;;;;;5347766;26;19929;-57
2024/04/13 13:23:13;;;;;;;;;;;;;;;;;;5335891;26;19943;-56
2024/04/13 13:25:39;;;;;;;;;;;;;;;;;;5347208;26;19930;-57
2024/04/13 13:28:06;;;;;;;;;;;;;;;;;;5341578;26;19930;-58
2024/04/13 13:30:34;;;;;;;;;;;;;;;;;;5343103;26;19934;-58
2024/04/13 13:33:00;;;;;;;;;;;;;;;;;;5350094;26;19931;-58
2024/04/13 13:35:26;;;;;;;;;;;;;;;;;;5348597;26;20049;-58
2024/04/13 13:37:51;;;;;;;;;;;;;;;;;;5341257;26;19946;-57
2024/04/13 13:40:17;;;;;;;;;;;;;;;;;;5346059;26;20283;-54
2024/04/13 13:42:44;;;;;;;;;;;;;;;;;;5344585;26;19944;-57
2024/04/13 13:45:10;;;;;;;;;;;;;;;;;;5344893;26;19949;-57
2024/04/13 13:47:36;;;;;;;;;;;;;;;;;;5341046;26;20271;-57
2024/04/13 13:50:02;;;;;;;;;;;;;;;;;;5350462;26;19999;-58
2024/04/13 13:52:28;;;;;;;;;;;;;;;;;;5347553;26;19930;-58
2024/04/13 13:55:09;;;;;;;;;;;;;;;;;;5486899;25;19951;-57
2024/04/13 13:57:35;;;;;;;;;;;;;;;;;;5476113;25;19929;-59
2024/04/13 14:00:03;;;;;;;;;;;;;;;;;;5469688;25;19935;-57
2024/04/13 14:02:29;;;;;;;;;;;;;;;;;;5448328;26;19936;-59
2024/04/13 14:04:55;;;;;;;;;;;;;;;;;;5462550;26;20358;-58
2024/04/13 14:07:21;;;;;;;;;;;;;;;;;;5460338;26;20023;-58
2024/04/13 14:09:46;;;;;;;;;;;;;;;;;;5454728;26;19998;-57
2024/04/13 14:12:12;;;;;;;;;;;;;;;;;;5452551;26;19943;-57
2024/04/13 14:14:38;;;;;;;;;;;;;;;;;;5462497;26;19996;-59
2024/04/13 14:17:04;;;;;;;;;;;;;;;;;;5463197;26;19929;-59
2024/04/13 14:19:30;;;;;;;;;;;;;;;;;;5459698;26;19997;-58
2024/04/13 14:21:56;;;;;;;;;;;;;;;;;;5466286;26;19935;-59
2024/04/13 14:24:24;;;;;;;;;;;;;;;;;;5447704;26;19952;-57
2024/04/13 14:26:50;;;;;;;;;;;;;;;;;;5460467;26;19935;-59
2024/04/13 14:29:16;;;;;;;;;;;;;;;;;;5455859;26;19937;-58
2024/04/13 14:31:42;;;;;;;;;;;;;;;;;;5463348;26;19935;-59
2024/04/13 14:34:08;;;;;;;;;;;;;;;;;;5462565;26;20285;-58
2024/04/13 14:36:34;;;;;;;;;;;;;;;;;;5454863;26;19929;-59
2024/04/13 14:38:59;;;;;;;;;;;;;;;;;;5445530;26;19929;-58
2024/04/13 14:41:25;;;;;;;;;;;;;;;;;;5456244;26;19928;-59
2024/04/13 14:43:51;;;;;;;;;;;;;;;;;;5449755;26;20025;-60
2024/04/13 14:46:17;;;;;;;;;;;;;;;;;;5453228;26;19928;-59
2024/04/13 14:48:43;;;;;;;;;;;;;;;;;;5446147;26;19937;-63
2024/04/13 14:51:09;;;;;;;;;;;;;;;;;;5454554;26;20274;-54
2024/04/13 14:53:35;;;;;;;;;;;;;;;;;;5453183;26;19936;-58
2024/04/13 14:56:01;;;;;;;;;;;;;;;;;;5455148;26;19940;-55
2024/04/13 14:58:27;;;;;;;;;;;;;;;;;;5453894;26;19957;-58
2024/04/13 15:00:53;;;;;;;;;;;;;;;;;;5455214;26;19955;-57
2024/04/13 15:03:19;;;;;;;;;;;;;;;;;;5460467;26;20437;-58
2024/04/13 15:05:45;;;;;;;;;;;;;;;;;;5448626;26;19932;-57
2024/04/13 15:08:11;;;;;;;;;;;;;;;;;;5434402;26;19933;-58
2024/04/13 15:10:38;;;;;;;;;;;;;;;;;;5434904;26;19936;-58
2024/04/13 15:13:04;;;;;;;;;;;;;;;;;;5435717;26;19934;-59
2024/04/13 15:15:30;;;;;;;;;;;;;;;;;;5436414;26;19929;-58
2024/04/13 15:17:56;;;;;;;;;;;;;;;;;;5433096;26;19941;-61
2024/04/13 15:20:22;;;;;;;;;;;;;;;;;;5442743;26;20293;-57
2024/04/13 15:22:48;;;;;;;;;;;;;;;;;;5447012;26;19929;-57
2024/04/13 15:25:13;;;;;;;;;;;;;;;;;;5451662;26;19936;-55
2024/04/13 15:27:39;;;;;;;;;;;;;;;;;;5447546;26;19998;-57
2024/04/13 15:30:05;;;;;;;;;;;;;;;;;;5437285;26;19941;-59
2024/04/13 15:32:31;;;;;;;;;;;;;;;;;;5441768;26;20345;-57
2024/04/13 15:34:58;;;;;;;;;;;;;;;;;;5431471;26;19929;-56
2024/04/13 15:37:23;;;;;;;;;;;;;;;;;;5439821;26;20016;-58
2024/04/13 15:39:49;;;;;;;;;;;;;;;;;;5443065;26;19936;-58
2024/04/13 15:42:15;;;;;;;;;;;;;;;;;;5447642;26;19928;-59
2024/04/13 15:44:41;;;;;;;;;;;;;;;;;;5428846;26;20024;-58
2024/04/13 15:47:07;;;;;;;;;;;;;;;;;;5439263;26;21093;-54
2024/04/13 15:49:33;;;;;;;;;;;;;;;;;;5435789;26;19929;-56
2024/04/13 15:51:59;;;;;;;;;;;;;;;;;;5437434;26;19929;-56
2024/04/13 15:54:25;;;;;;;;;;;;;;;;;;5473077;26;19928;-57
2024/04/13 15:56:51;;;;;;;;;;;;;;;;;;5484300;26;19928;-57
2024/04/13 15:59:17;;;;;;;;;;;;;;;;;;5476221;26;19932;-55
2024/04/13 16:01:42;;;;;;;;;;;;;;;;;;5485951;26;20861;-54
2024/04/13 16:04:09;;;;;;;;;;;;;;;;;;5470844;26;19939;-58
2024/04/13 16:06:35;;;;;;;;;;;;;;;;;;5473108;26;20551;-57
2024/04/13 16:09:01;;;;;;;;;;;;;;;;;;5472180;26;20002;-58
2024/04/13 16:11:26;;;;;;;;;;;;;;;;;;5470539;26;19948;-57
2024/04/13 16:13:52;;;;;;;;;;;;;;;;;;5464772;26;19929;-58
2024/04/13 16:16:18;;;;;;;;;;;;;;;;;;5476778;26;20373;-58
2024/04/13 16:18:44;;;;;;;;;;;;;;;;;;5468561;26;19943;-59
2024/04/13 16:21:10;;;;;;;;;;;;;;;;;;5467483;26;19940;-58
2024/04/13 16:23:36;;;;;;;;;;;;;;;;;;5474219;26;19928;-58
2024/04/13 16:26:02;;;;;;;;;;;;;;;;;;5471856;26;19964;-58
2024/04/13 16:28:28;;;;;;;;;;;;;;;;;;5470582;26;19928;-58
2024/04/13 16:30:55;;;;;;;;;;;;;;;;;;5471937;26;20346;-59
2024/04/13 16:33:21;;;;;;;;;;;;;;;;;;5482148;26;19928;-58
2024/04/13 16:35:47;;;;;;;;;;;;;;;;;;5474770;26;19936;-58
2024/04/13 16:38:12;;;;;;;;;;;;;;;;;;5465649;26;19928;-54